sensor_id;sensor_type;location;lat;lon;timestamp;pressure;altitude;pressure_sealevel;temperature;humidity
62948;BME280;51940;52.126;-0.994;2022-12-18T00:01:33;101151.16;;;-3.22;100.00
62948;BME280;51940;52.126;-0.994;2022-12-18T00:04:01;101149.52;;;-3.24;100.00
62948;BME280;51940;52.126;-0.994;2022-12-18T00:06:28;101149.67;;;-3.24;100.00
62948;BME280;51940;52.126;-0.994;2022-12-18T00:08:58;101153.84;;;-3.24;100.00
62948;BME280;51940;52.126;-0.994;2022-12-18T00:11:27;101156.44;;;-3.25;100.00
62948;BME280;51940;52.126;-0.994;2022-12-18T00:13:55;101150.53;;;-3.24;100.00
62948;BME280;51940;52.126;-0.994;2022-12-18T00:16:23;101152.27;;;-3.25;100.00
62948;BME280;51940;52.126;-0.994;2022-12-18T00:18:51;101142.80;;;-3.25;100.00
62948;BME280;51940;52.126;-0.994;2022-12-18T00:21:16;101137.05;;;-3.25;100.00
62948;BME280;51940;52.126;-0.994;2022-12-18T00:23:43;101130.98;;;-3.25;100.00
62948;BME280;51940;52.126;-0.994;2022-12-18T00:26:15;101124.70;;;-3.25;100.00
62948;BME280;51940;52.126;-0.994;2022-12-18T00:28:41;101129.39;;;-3.25;100.00
62948;BME280;51940;52.126;-0.994;2022-12-18T00:31:10;101132.05;;;-3.24;100.00
62948;BME280;51940;52.126;-0.994;2022-12-18T00:33:37;101130.27;;;-3.25;100.00
62948;BME280;51940;52.126;-0.994;2022-12-18T00:36:06;101131.50;;;-3.25;100.00
62948;BME280;51940;52.126;-0.994;2022-12-18T00:38:33;101137.41;;;-3.25;100.00
62948;BME280;51940;52.126;-0.994;2022-12-18T00:40:59;101135.48;;;-3.25;100.00
62948;BME280;51940;52.126;-0.994;2022-12-18T00:43:25;101141.39;;;-3.26;100.00
62948;BME280;51940;52.126;-0.994;2022-12-18T00:45:51;101141.15;;;-3.27;100.00
62948;BME280;51940;52.126;-0.994;2022-12-18T00:48:16;101137.41;;;-3.29;100.00
62948;BME280;51940;52.126;-0.994;2022-12-18T00:50:42;101130.42;;;-3.30;100.00
62948;BME280;51940;52.126;-0.994;2022-12-18T00:53:07;101128.45;;;-3.31;100.00
62948;BME280;51940;52.126;-0.994;2022-12-18T00:55:33;101123.80;;;-3.33;100.00
62948;BME280;51940;52.126;-0.994;2022-12-18T00:57:59;101126.30;;;-3.36;100.00
62948;BME280;51940;52.126;-0.994;2022-12-18T01:00:25;101122.52;;;-3.38;100.00
62948;BME280;51940;52.126;-0.994;2022-12-18T01:02:50;101119.99;;;-3.41;100.00
62948;BME280;51940;52.126;-0.994;2022-12-18T01:05:16;101118.13;;;-3.43;100.00
62948;BME280;51940;52.126;-0.994;2022-12-18T01:07:41;101118.54;;;-3.46;100.00
62948;BME280;51940;52.126;-0.994;2022-12-18T01:10:09;101118.78;;;-3.49;100.00
62948;BME280;51940;52.126;-0.994;2022-12-18T01:12:35;101115.19;;;-3.51;100.00
62948;BME280;51940;52.126;-0.994;2022-12-18T01:15:00;101113.20;;;-3.52;100.00
62948;BME280;51940;52.126;-0.994;2022-12-18T01:17:26;101110.18;;;-3.54;100.00
62948;BME280;51940;52.126;-0.994;2022-12-18T01:19:51;101117.23;;;-3.56;100.00
62948;BME280;51940;52.126;-0.994;2022-12-18T01:22:16;101119.27;;;-3.58;100.00
62948;BME280;51940;52.126;-0.994;2022-12-18T01:24:42;101121.23;;;-3.60;100.00
62948;BME280;51940;52.126;-0.994;2022-12-18T01:27:07;101119.00;;;-3.63;100.00
62948;BME280;51940;52.126;-0.994;2022-12-18T01:29:33;101116.50;;;-3.65;100.00
62948;BME280;51940;52.126;-0.994;2022-12-18T01:31:58;101108.59;;;-3.66;100.00
62948;BME280;51940;52.126;-0.994;2022-12-18T01:34:24;101105.70;;;-3.68;100.00
62948;BME280;51940;52.126;-0.994;2022-12-18T01:36:49;101097.44;;;-3.70;100.00
62948;BME280;51940;52.126;-0.994;2022-12-18T01:39:18;101087.10;;;-3.71;100.00
62948;BME280;51940;52.126;-0.994;2022-12-18T01:41:44;101082.81;;;-3.74;100.00
62948;BME280;51940;52.126;-0.994;2022-12-18T01:45:03;101076.51;;;-3.74;100.00
62948;BME280;51940;52.126;-0.994;2022-12-18T01:47:33;101078.27;;;-3.74;100.00
62948;BME280;51940;52.126;-0.994;2022-12-18T01:50:04;101086.09;;;-3.74;100.00
62948;BME280;51940;52.126;-0.994;2022-12-18T01:52:32;101093.39;;;-3.75;100.00
62948;BME280;51940;52.126;-0.994;2022-12-18T01:54:59;101101.33;;;-3.76;100.00
62948;BME280;51940;52.126;-0.994;2022-12-18T01:57:26;101104.91;;;-3.78;100.00
62948;BME280;51940;52.126;-0.994;2022-12-18T01:59:53;101099.26;;;-3.80;100.00
62948;BME280;51940;52.126;-0.994;2022-12-18T02:02:22;101096.88;;;-3.83;100.00
62948;BME280;51940;52.126;-0.994;2022-12-18T02:04:47;101099.91;;;-3.84;100.00
62948;BME280;51940;52.126;-0.994;2022-12-18T02:07:29;101098.98;;;-3.85;100.00
62948;BME280;51940;52.126;-0.994;2022-12-18T02:18:05;101102.42;;;-3.87;100.00
62948;BME280;51940;52.126;-0.994;2022-12-18T02:20:35;101100.45;;;-3.88;100.00
62948;BME280;51940;52.126;-0.994;2022-12-18T02:28:06;101117.13;;;-3.93;100.00
62948;BME280;51940;52.126;-0.994;2022-12-18T02:30:35;101120.90;;;-3.94;100.00
62948;BME280;51940;52.126;-0.994;2022-12-18T02:33:04;101129.14;;;-3.98;100.00
62948;BME280;51940;52.126;-0.994;2022-12-18T02:35:32;101135.43;;;-4.01;100.00
62948;BME280;51940;52.126;-0.994;2022-12-18T02:37:59;101136.50;;;-4.04;100.00
62948;BME280;51940;52.126;-0.994;2022-12-18T02:40:27;101132.85;;;-4.07;100.00
62948;BME280;51940;52.126;-0.994;2022-12-18T02:42:53;101135.64;;;-4.10;100.00
62948;BME280;51940;52.126;-0.994;2022-12-18T02:45:19;101135.55;;;-4.13;100.00
62948;BME280;51940;52.126;-0.994;2022-12-18T02:47:48;101137.68;;;-4.16;100.00
62948;BME280;51940;52.126;-0.994;2022-12-18T02:53:11;101130.30;;;-4.21;100.00
62948;BME280;51940;52.126;-0.994;2022-12-18T02:56:00;101126.33;;;-4.24;100.00
62948;BME280;51940;52.126;-0.994;2022-12-18T02:59:00;101121.16;;;-4.27;100.00
62948;BME280;51940;52.126;-0.994;2022-12-18T03:01:47;101119.39;;;-4.30;100.00
62948;BME280;51940;52.126;-0.994;2022-12-18T03:06:59;101096.98;;;-4.33;100.00
62948;BME280;51940;52.126;-0.994;2022-12-18T03:09:40;101094.55;;;-4.33;100.00
62948;BME280;51940;52.126;-0.994;2022-12-18T03:12:30;101084.75;;;-4.34;100.00
62948;BME280;51940;52.126;-0.994;2022-12-18T03:17:37;101077.77;;;-4.35;100.00
62948;BME280;51940;52.126;-0.994;2022-12-18T03:20:12;101072.70;;;-4.35;100.00
62948;BME280;51940;52.126;-0.994;2022-12-18T03:22:43;101073.23;;;-4.35;100.00
62948;BME280;51940;52.126;-0.994;2022-12-18T03:25:15;101074.95;;;-4.31;100.00
62948;BME280;51940;52.126;-0.994;2022-12-18T03:27:48;101071.75;;;-4.29;100.00
62948;BME280;51940;52.126;-0.994;2022-12-18T03:30:16;101070.33;;;-4.26;100.00
62948;BME280;51940;52.126;-0.994;2022-12-18T03:35:16;101069.64;;;-4.22;100.00
62948;BME280;51940;52.126;-0.994;2022-12-18T03:37:44;101061.52;;;-4.20;100.00
62948;BME280;51940;52.126;-0.994;2022-12-18T03:40:10;101063.19;;;-4.18;100.00
62948;BME280;51940;52.126;-0.994;2022-12-18T03:42:48;101061.06;;;-4.16;100.00
62948;BME280;51940;52.126;-0.994;2022-12-18T03:45:35;101048.63;;;-4.13;100.00
62948;BME280;51940;52.126;-0.994;2022-12-18T03:51:00;101037.98;;;-4.10;100.00
62948;BME280;51940;52.126;-0.994;2022-12-18T03:53:56;101038.73;;;-4.09;100.00
62948;BME280;51940;52.126;-0.994;2022-12-18T03:56:26;101040.89;;;-4.07;100.00
62948;BME280;51940;52.126;-0.994;2022-12-18T03:58:55;101041.85;;;-4.05;100.00
62948;BME280;51940;52.126;-0.994;2022-12-18T04:01:31;101036.33;;;-4.04;100.00
62948;BME280;51940;52.126;-0.994;2022-12-18T04:04:00;101027.64;;;-4.03;100.00
62948;BME280;51940;52.126;-0.994;2022-12-18T04:06:28;101027.64;;;-4.03;100.00
62948;BME280;51940;52.126;-0.994;2022-12-18T04:08:54;101026.48;;;-4.02;100.00
62948;BME280;51940;52.126;-0.994;2022-12-18T04:11:20;101016.98;;;-4.01;100.00
62948;BME280;51940;52.126;-0.994;2022-12-18T04:13:45;101012.84;;;-4.00;100.00
62948;BME280;51940;52.126;-0.994;2022-12-18T04:16:10;101005.73;;;-3.99;100.00
62948;BME280;51940;52.126;-0.994;2022-12-18T04:18:36;101000.54;;;-3.98;100.00
62948;BME280;51940;52.126;-0.994;2022-12-18T04:21:02;101000.94;;;-3.97;100.00
62948;BME280;51940;52.126;-0.994;2022-12-18T04:23:27;100999.24;;;-3.95;100.00
62948;BME280;51940;52.126;-0.994;2022-12-18T04:25:53;100995.99;;;-3.94;100.00
62948;BME280;51940;52.126;-0.994;2022-12-18T04:28:18;100994.52;;;-3.92;100.00
62948;BME280;51940;52.126;-0.994;2022-12-18T04:30:44;100991.77;;;-3.91;100.00
62948;BME280;51940;52.126;-0.994;2022-12-18T04:33:12;100994.98;;;-3.89;100.00
62948;BME280;51940;52.126;-0.994;2022-12-18T04:35:39;100989.96;;;-3.89;100.00
62948;BME280;51940;52.126;-0.994;2022-12-18T04:38:06;100981.13;;;-3.87;100.00
62948;BME280;51940;52.126;-0.994;2022-12-18T04:40:36;100975.40;;;-3.86;100.00
62948;BME280;51940;52.126;-0.994;2022-12-18T04:43:02;100978.10;;;-3.85;100.00
62948;BME280;51940;52.126;-0.994;2022-12-18T04:45:28;100977.29;;;-3.84;100.00
62948;BME280;51940;52.126;-0.994;2022-12-18T04:47:53;100980.00;;;-3.81;100.00
62948;BME280;51940;52.126;-0.994;2022-12-18T04:50:19;100973.84;;;-3.78;100.00
62948;BME280;51940;52.126;-0.994;2022-12-18T04:52:44;100972.39;;;-3.76;100.00
62948;BME280;51940;52.126;-0.994;2022-12-18T04:55:09;100962.93;;;-3.73;100.00
62948;BME280;51940;52.126;-0.994;2022-12-18T04:57:35;100946.77;;;-3.72;100.00
62948;BME280;51940;52.126;-0.994;2022-12-18T05:00:00;100938.80;;;-3.71;100.00
62948;BME280;51940;52.126;-0.994;2022-12-18T05:02:26;100922.65;;;-3.69;100.00
62948;BME280;51940;52.126;-0.994;2022-12-18T05:04:51;100908.88;;;-3.69;100.00
62948;BME280;51940;52.126;-0.994;2022-12-18T05:07:16;100892.31;;;-3.69;100.00
62948;BME280;51940;52.126;-0.994;2022-12-18T05:09:42;100884.66;;;-3.69;100.00
62948;BME280;51940;52.126;-0.994;2022-12-18T05:12:07;100894.07;;;-3.69;100.00
62948;BME280;51940;52.126;-0.994;2022-12-18T05:14:32;100888.00;;;-3.68;100.00
62948;BME280;51940;52.126;-0.994;2022-12-18T05:16:58;100882.64;;;-3.67;100.00
62948;BME280;51940;52.126;-0.994;2022-12-18T05:19:23;100867.52;;;-3.67;100.00
62948;BME280;51940;52.126;-0.994;2022-12-18T05:21:49;100865.29;;;-3.65;100.00
62948;BME280;51940;52.126;-0.994;2022-12-18T05:24:14;100868.13;;;-3.64;100.00
62948;BME280;51940;52.126;-0.994;2022-12-18T05:26:39;100873.21;;;-3.63;100.00
62948;BME280;51940;52.126;-0.994;2022-12-18T05:29:05;100868.20;;;-3.62;100.00
62948;BME280;51940;52.126;-0.994;2022-12-18T05:31:30;100869.95;;;-3.62;100.00
62948;BME280;51940;52.126;-0.994;2022-12-18T05:33:55;100872.77;;;-3.61;100.00
62948;BME280;51940;52.126;-0.994;2022-12-18T05:36:21;100877.33;;;-3.61;100.00
62948;BME280;51940;52.126;-0.994;2022-12-18T05:38:46;100884.15;;;-3.60;100.00
62948;BME280;51940;52.126;-0.994;2022-12-18T05:41:12;100885.39;;;-3.59;100.00
62948;BME280;51940;52.126;-0.994;2022-12-18T05:43:38;100880.54;;;-3.59;100.00
62948;BME280;51940;52.126;-0.994;2022-12-18T05:46:06;100866.67;;;-3.57;100.00
62948;BME280;51940;52.126;-0.994;2022-12-18T05:48:32;100861.81;;;-3.57;100.00
62948;BME280;51940;52.126;-0.994;2022-12-18T05:51:06;100855.20;;;-3.56;100.00
62948;BME280;51940;52.126;-0.994;2022-12-18T05:53:33;100852.82;;;-3.55;100.00
62948;BME280;51940;52.126;-0.994;2022-12-18T05:56:04;100857.17;;;-3.55;100.00
62948;BME280;51940;52.126;-0.994;2022-12-18T05:58:30;100853.01;;;-3.54;100.00
62948;BME280;51940;52.126;-0.994;2022-12-18T06:00:56;100854.27;;;-3.53;100.00
62948;BME280;51940;52.126;-0.994;2022-12-18T06:03:22;100854.83;;;-3.52;100.00
62948;BME280;51940;52.126;-0.994;2022-12-18T06:05:47;100854.25;;;-3.50;100.00
62948;BME280;51940;52.126;-0.994;2022-12-18T06:08:13;100850.16;;;-3.47;100.00
62948;BME280;51940;52.126;-0.994;2022-12-18T06:10:40;100853.05;;;-3.44;100.00
62948;BME280;51940;52.126;-0.994;2022-12-18T06:13:06;100849.30;;;-3.42;100.00
62948;BME280;51940;52.126;-0.994;2022-12-18T06:15:32;100846.95;;;-3.40;100.00
62948;BME280;51940;52.126;-0.994;2022-12-18T06:17:57;100834.98;;;-3.38;100.00
62948;BME280;51940;52.126;-0.994;2022-12-18T06:20:23;100828.83;;;-3.35;100.00
62948;BME280;51940;52.126;-0.994;2022-12-18T06:22:48;100823.74;;;-3.31;100.00
62948;BME280;51940;52.126;-0.994;2022-12-18T06:25:14;100825.76;;;-3.29;100.00
62948;BME280;51940;52.126;-0.994;2022-12-18T06:27:39;100831.82;;;-3.25;100.00
62948;BME280;51940;52.126;-0.994;2022-12-18T06:30:05;100825.10;;;-3.23;100.00
62948;BME280;51940;52.126;-0.994;2022-12-18T06:32:31;100818.80;;;-3.19;100.00
62948;BME280;51940;52.126;-0.994;2022-12-18T06:34:56;100811.08;;;-3.16;100.00
62948;BME280;51940;52.126;-0.994;2022-12-18T06:37:22;100814.21;;;-3.11;100.00
62948;BME280;51940;52.126;-0.994;2022-12-18T06:39:52;100821.71;;;-3.07;100.00
62948;BME280;51940;52.126;-0.994;2022-12-18T06:42:17;100826.59;;;-3.02;100.00
62948;BME280;51940;52.126;-0.994;2022-12-18T06:44:43;100829.08;;;-2.97;100.00
62948;BME280;51940;52.126;-0.994;2022-12-18T06:47:08;100834.41;;;-2.94;100.00
62948;BME280;51940;52.126;-0.994;2022-12-18T06:49:34;100836.63;;;-2.91;100.00
62948;BME280;51940;52.126;-0.994;2022-12-18T06:51:59;100833.27;;;-2.88;100.00
62948;BME280;51940;52.126;-0.994;2022-12-18T06:54:24;100826.89;;;-2.85;100.00
62948;BME280;51940;52.126;-0.994;2022-12-18T06:56:50;100822.80;;;-2.82;100.00
62948;BME280;51940;52.126;-0.994;2022-12-18T06:59:15;100821.06;;;-2.81;100.00
62948;BME280;51940;52.126;-0.994;2022-12-18T07:01:41;100816.46;;;-2.83;100.00
62948;BME280;51940;52.126;-0.994;2022-12-18T07:04:07;100807.70;;;-2.85;100.00
62948;BME280;51940;52.126;-0.994;2022-12-18T07:06:32;100804.95;;;-2.83;100.00
62948;BME280;51940;52.126;-0.994;2022-12-18T07:08:58;100799.02;;;-2.83;100.00
62948;BME280;51940;52.126;-0.994;2022-12-18T07:11:23;100795.70;;;-2.83;100.00
62948;BME280;51940;52.126;-0.994;2022-12-18T07:13:49;100795.68;;;-2.84;100.00
62948;BME280;51940;52.126;-0.994;2022-12-18T07:16:18;100793.80;;;-2.83;100.00
62948;BME280;51940;52.126;-0.994;2022-12-18T07:18:44;100790.90;;;-2.81;100.00
62948;BME280;51940;52.126;-0.994;2022-12-18T07:21:17;100779.77;;;-2.80;100.00
62948;BME280;51940;52.126;-0.994;2022-12-18T07:23:42;100766.19;;;-2.79;100.00
62948;BME280;51940;52.126;-0.994;2022-12-18T07:26:11;100773.04;;;-2.78;100.00
62948;BME280;51940;52.126;-0.994;2022-12-18T07:28:38;100771.85;;;-2.76;100.00
62948;BME280;51940;52.126;-0.994;2022-12-18T07:31:06;100776.45;;;-2.75;100.00
62948;BME280;51940;52.126;-0.994;2022-12-18T07:33:32;100777.56;;;-2.73;100.00
62948;BME280;51940;52.126;-0.994;2022-12-18T07:35:59;100768.70;;;-2.72;100.00
62948;BME280;51940;52.126;-0.994;2022-12-18T07:38:24;100751.14;;;-2.70;100.00
62948;BME280;51940;52.126;-0.994;2022-12-18T07:40:50;100751.34;;;-2.69;100.00
62948;BME280;51940;52.126;-0.994;2022-12-18T07:43:15;100755.92;;;-2.68;100.00
62948;BME280;51940;52.126;-0.994;2022-12-18T07:45:41;100758.21;;;-2.67;100.00
62948;BME280;51940;52.126;-0.994;2022-12-18T07:48:07;100770.13;;;-2.66;100.00
62948;BME280;51940;52.126;-0.994;2022-12-18T07:50:32;100775.41;;;-2.65;100.00
62948;BME280;51940;52.126;-0.994;2022-12-18T07:52:58;100784.05;;;-2.63;100.00
62948;BME280;51940;52.126;-0.994;2022-12-18T07:55:23;100783.90;;;-2.62;100.00
62948;BME280;51940;52.126;-0.994;2022-12-18T07:57:48;100787.60;;;-2.61;100.00
62948;BME280;51940;52.126;-0.994;2022-12-18T08:00:14;100789.75;;;-2.59;100.00
62948;BME280;51940;52.126;-0.994;2022-12-18T08:02:39;100785.41;;;-2.59;100.00
62948;BME280;51940;52.126;-0.994;2022-12-18T08:05:05;100793.48;;;-2.58;100.00
62948;BME280;51940;52.126;-0.994;2022-12-18T08:07:30;100800.88;;;-2.56;100.00
62948;BME280;51940;52.126;-0.994;2022-12-18T08:09:56;100803.38;;;-2.54;100.00
62948;BME280;51940;52.126;-0.994;2022-12-18T08:12:21;100803.78;;;-2.52;100.00
62948;BME280;51940;52.126;-0.994;2022-12-18T08:14:46;100798.77;;;-2.51;100.00
62948;BME280;51940;52.126;-0.994;2022-12-18T08:17:12;100793.77;;;-2.49;100.00
62948;BME280;51940;52.126;-0.994;2022-12-18T08:19:37;100794.56;;;-2.47;100.00
62948;BME280;51940;52.126;-0.994;2022-12-18T08:22:03;100787.80;;;-2.46;100.00
62948;BME280;51940;52.126;-0.994;2022-12-18T08:24:28;100780.53;;;-2.43;100.00
62948;BME280;51940;52.126;-0.994;2022-12-18T08:26:53;100780.66;;;-2.40;100.00
62948;BME280;51940;52.126;-0.994;2022-12-18T08:29:22;100762.92;;;-2.38;100.00
62948;BME280;51940;52.126;-0.994;2022-12-18T08:31:47;100767.89;;;-2.35;100.00
62948;BME280;51940;52.126;-0.994;2022-12-18T08:34:13;100771.27;;;-2.33;100.00
62948;BME280;51940;52.126;-0.994;2022-12-18T08:36:38;100773.10;;;-2.31;100.00
62948;BME280;51940;52.126;-0.994;2022-12-18T08:39:03;100772.61;;;-2.30;100.00
62948;BME280;51940;52.126;-0.994;2022-12-18T08:41:29;100789.80;;;-2.28;100.00
62948;BME280;51940;52.126;-0.994;2022-12-18T08:43:54;100796.34;;;-2.25;100.00
62948;BME280;51940;52.126;-0.994;2022-12-18T08:46:40;100790.50;;;-2.22;100.00
62948;BME280;51940;52.126;-0.994;2022-12-18T08:49:08;100794.27;;;-2.19;100.00
62948;BME280;51940;52.126;-0.994;2022-12-18T08:51:34;100790.32;;;-2.17;100.00
62948;BME280;51940;52.126;-0.994;2022-12-18T08:54:01;100794.05;;;-2.15;100.00
62948;BME280;51940;52.126;-0.994;2022-12-18T08:56:27;100791.03;;;-2.12;100.00
62948;BME280;51940;52.126;-0.994;2022-12-18T08:58:54;100790.27;;;-2.08;100.00
62948;BME280;51940;52.126;-0.994;2022-12-18T09:01:20;100786.14;;;-2.06;100.00
62948;BME280;51940;52.126;-0.994;2022-12-18T09:03:46;100777.83;;;-2.04;100.00
62948;BME280;51940;52.126;-0.994;2022-12-18T09:06:20;100769.69;;;-2.02;100.00
62948;BME280;51940;52.126;-0.994;2022-12-18T09:08:45;100766.98;;;-1.99;100.00
62948;BME280;51940;52.126;-0.994;2022-12-18T09:11:20;100763.44;;;-1.95;100.00
62948;BME280;51940;52.126;-0.994;2022-12-18T09:13:45;100769.17;;;-1.90;100.00
62948;BME280;51940;52.126;-0.994;2022-12-18T09:16:11;100768.81;;;-1.86;100.00
62948;BME280;51940;52.126;-0.994;2022-12-18T09:18:36;100773.66;;;-1.81;100.00
62948;BME280;51940;52.126;-0.994;2022-12-18T09:21:16;100772.78;;;-1.77;100.00
62948;BME280;51940;52.126;-0.994;2022-12-18T09:23:42;100773.63;;;-1.72;100.00
62948;BME280;51940;52.126;-0.994;2022-12-18T09:26:08;100774.65;;;-1.67;100.00
62948;BME280;51940;52.126;-0.994;2022-12-18T09:28:34;100766.58;;;-1.62;100.00
62948;BME280;51940;52.126;-0.994;2022-12-18T09:31:04;100762.52;;;-1.58;100.00
62948;BME280;51940;52.126;-0.994;2022-12-18T09:33:31;100769.73;;;-1.55;100.00
62948;BME280;51940;52.126;-0.994;2022-12-18T09:35:56;100766.00;;;-1.53;100.00
62948;BME280;51940;52.126;-0.994;2022-12-18T09:38:21;100768.52;;;-1.50;100.00
62948;BME280;51940;52.126;-0.994;2022-12-18T09:40:51;100766.35;;;-1.47;100.00
62948;BME280;51940;52.126;-0.994;2022-12-18T09:43:24;100756.86;;;-1.42;100.00
62948;BME280;51940;52.126;-0.994;2022-12-18T09:45:57;100757.12;;;-1.39;100.00
62948;BME280;51940;52.126;-0.994;2022-12-18T09:48:29;100747.79;;;-1.36;100.00
62948;BME280;51940;52.126;-0.994;2022-12-18T09:51:00;100741.23;;;-1.33;100.00
62948;BME280;51940;52.126;-0.994;2022-12-18T09:53:31;100739.95;;;-1.29;100.00
62948;BME280;51940;52.126;-0.994;2022-12-18T09:56:00;100736.05;;;-1.25;100.00
62948;BME280;51940;52.126;-0.994;2022-12-18T09:58:28;100728.61;;;-1.21;100.00
62948;BME280;51940;52.126;-0.994;2022-12-18T10:00:56;100726.98;;;-1.17;100.00
62948;BME280;51940;52.126;-0.994;2022-12-18T10:03:22;100724.27;;;-1.13;100.00
62948;BME280;51940;52.126;-0.994;2022-12-18T10:06:32;100718.59;;;-1.11;100.00
62948;BME280;51940;52.126;-0.994;2022-12-18T10:09:37;100705.91;;;-1.07;100.00
62948;BME280;51940;52.126;-0.994;2022-12-18T10:12:07;100700.94;;;-1.03;100.00
62948;BME280;51940;52.126;-0.994;2022-12-18T10:17:26;100688.17;;;-0.96;100.00
62948;BME280;51940;52.126;-0.994;2022-12-18T10:19:56;100670.04;;;-0.94;100.00
62948;BME280;51940;52.126;-0.994;2022-12-18T10:27:32;100645.34;;;-0.87;100.00
62948;BME280;51940;52.126;-0.994;2022-12-18T10:29:58;100642.42;;;-0.86;100.00
62948;BME280;51940;52.126;-0.994;2022-12-18T10:32:30;100641.09;;;-0.83;100.00
62948;BME280;51940;52.126;-0.994;2022-12-18T10:34:57;100645.33;;;-0.81;100.00
62948;BME280;51940;52.126;-0.994;2022-12-18T10:37:25;100639.11;;;-0.78;100.00
62948;BME280;51940;52.126;-0.994;2022-12-18T10:40:12;100634.45;;;-0.76;100.00
62948;BME280;51940;52.126;-0.994;2022-12-18T10:42:39;100630.64;;;-0.74;100.00
62948;BME280;51940;52.126;-0.994;2022-12-18T10:45:15;100620.86;;;-0.73;100.00
62948;BME280;51940;52.126;-0.994;2022-12-18T10:47:45;100620.73;;;-0.70;100.00
62948;BME280;51940;52.126;-0.994;2022-12-18T10:50:20;100612.76;;;-0.68;100.00
62948;BME280;51940;52.126;-0.994;2022-12-18T10:52:55;100600.91;;;-0.65;100.00
62948;BME280;51940;52.126;-0.994;2022-12-18T10:55:21;100593.94;;;-0.64;100.00
62948;BME280;51940;52.126;-0.994;2022-12-18T10:57:47;100589.77;;;-0.62;100.00
62948;BME280;51940;52.126;-0.994;2022-12-18T11:00:27;100584.71;;;-0.61;100.00
62948;BME280;51940;52.126;-0.994;2022-12-18T11:02:54;100571.67;;;-0.58;100.00
62948;BME280;51940;52.126;-0.994;2022-12-18T11:05:25;100565.07;;;-0.54;100.00
62948;BME280;51940;52.126;-0.994;2022-12-18T11:07:51;100563.88;;;-0.52;100.00
62948;BME280;51940;52.126;-0.994;2022-12-18T11:10:21;100553.99;;;-0.49;100.00
62948;BME280;51940;52.126;-0.994;2022-12-18T11:12:47;100541.42;;;-0.47;100.00
62948;BME280;51940;52.126;-0.994;2022-12-18T11:15:26;100534.30;;;-0.43;100.00
62948;BME280;51940;52.126;-0.994;2022-12-18T11:17:53;100528.11;;;-0.39;100.00
62948;BME280;51940;52.126;-0.994;2022-12-18T11:20:25;100538.70;;;-0.36;100.00
62948;BME280;51940;52.126;-0.994;2022-12-18T11:23:13;100540.70;;;-0.33;100.00
62948;BME280;51940;52.126;-0.994;2022-12-18T11:25:39;100533.77;;;-0.29;100.00
62948;BME280;51940;52.126;-0.994;2022-12-18T11:31:24;100530.40;;;-0.23;100.00
62948;BME280;51940;52.126;-0.994;2022-12-18T11:33:56;100523.08;;;-0.21;100.00
62948;BME280;51940;52.126;-0.994;2022-12-18T11:36:23;100526.61;;;-0.19;100.00
62948;BME280;51940;52.126;-0.994;2022-12-18T11:38:51;100519.80;;;-0.17;100.00
62948;BME280;51940;52.126;-0.994;2022-12-18T11:41:27;100526.36;;;-0.15;100.00
62948;BME280;51940;52.126;-0.994;2022-12-18T11:44:28;100521.32;;;-0.12;100.00
62948;BME280;51940;52.126;-0.994;2022-12-18T11:47:01;100514.88;;;-0.10;100.00
62948;BME280;51940;52.126;-0.994;2022-12-18T11:49:33;100511.64;;;-0.06;100.00
62948;BME280;51940;52.126;-0.994;2022-12-18T11:52:19;100507.30;;;-0.04;100.00
62948;BME280;51940;52.126;-0.994;2022-12-18T11:54:53;100498.23;;;-0.02;100.00
62948;BME280;51940;52.126;-0.994;2022-12-18T11:57:54;100487.77;;;0.01;100.00
62948;BME280;51940;52.126;-0.994;2022-12-18T12:00:23;100483.63;;;0.05;100.00
62948;BME280;51940;52.126;-0.994;2022-12-18T12:05:36;100466.39;;;0.10;100.00
62948;BME280;51940;52.126;-0.994;2022-12-18T12:08:23;100452.39;;;0.12;100.00
62948;BME280;51940;52.126;-0.994;2022-12-18T12:11:21;100436.27;;;0.14;100.00
62948;BME280;51940;52.126;-0.994;2022-12-18T12:19:39;100415.31;;;0.17;100.00
62948;BME280;51940;52.126;-0.994;2022-12-18T12:22:18;100409.56;;;0.19;100.00
62948;BME280;51940;52.126;-0.994;2022-12-18T12:30:21;100386.24;;;0.20;100.00
62948;BME280;51940;52.126;-0.994;2022-12-18T12:38:57;100357.14;;;0.21;100.00
62948;BME280;51940;52.126;-0.994;2022-12-18T12:41:27;100354.54;;;0.23;100.00
62948;BME280;51940;52.126;-0.994;2022-12-18T12:44:18;100353.16;;;0.25;100.00
62948;BME280;51940;52.126;-0.994;2022-12-18T12:46:46;100348.98;;;0.25;100.00
62948;BME280;51940;52.126;-0.994;2022-12-18T12:49:17;100343.58;;;0.26;100.00
62948;BME280;51940;52.126;-0.994;2022-12-18T12:51:50;100345.36;;;0.29;100.00
62948;BME280;51940;52.126;-0.994;2022-12-18T12:54:21;100336.80;;;0.31;100.00
62948;BME280;51940;52.126;-0.994;2022-12-18T13:02:47;100324.02;;;0.34;100.00
62948;BME280;51940;52.126;-0.994;2022-12-18T13:07:54;100313.70;;;0.35;100.00
62948;BME280;51940;52.126;-0.994;2022-12-18T13:10:26;100307.77;;;0.36;100.00
62948;BME280;51940;52.126;-0.994;2022-12-18T13:20:35;100285.53;;;0.40;100.00
62948;BME280;51940;52.126;-0.994;2022-12-18T13:31:03;100261.04;;;0.43;100.00
62948;BME280;51940;52.126;-0.994;2022-12-18T13:36:25;100252.28;;;0.44;100.00
62948;BME280;51940;52.126;-0.994;2022-12-18T13:41:46;100249.80;;;0.43;100.00
62948;BME280;51940;52.126;-0.994;2022-12-18T13:44:36;100245.55;;;0.42;100.00
62948;BME280;51940;52.126;-0.994;2022-12-18T13:49:49;100224.67;;;0.42;100.00
62948;BME280;51940;52.126;-0.994;2022-12-18T13:52:19;100217.30;;;0.41;100.00
62948;BME280;51940;52.126;-0.994;2022-12-18T13:54:52;100216.60;;;0.42;100.00
62948;BME280;51940;52.126;-0.994;2022-12-18T13:57:33;100211.16;;;0.42;100.00
62948;BME280;51940;52.126;-0.994;2022-12-18T14:00:23;100200.10;;;0.41;100.00
62948;BME280;51940;52.126;-0.994;2022-12-18T14:02:50;100194.88;;;0.43;100.00
62948;BME280;51940;52.126;-0.994;2022-12-18T14:05:23;100193.15;;;0.44;100.00
62948;BME280;51940;52.126;-0.994;2022-12-18T14:07:49;100186.84;;;0.43;100.00
62948;BME280;51940;52.126;-0.994;2022-12-18T14:10:15;100183.51;;;0.44;100.00
62948;BME280;51940;52.126;-0.994;2022-12-18T14:12:45;100174.74;;;0.45;100.00